createdAt,value
2022-12-16T00:00:19.973Z,79.80
2022-12-16T00:01:19.912Z,79.80
2022-12-16T00:02:19.910Z,79.99
2022-12-16T00:03:19.878Z,79.90
2022-12-16T00:04:19.724Z,80.08
2022-12-16T00:05:19.666Z,79.90
2022-12-16T00:06:19.607Z,79.90
2022-12-16T00:07:19.537Z,79.99
2022-12-16T00:08:19.473Z,79.90
2022-12-16T00:09:19.410Z,80.08
2022-12-16T00:10:19.356Z,79.99
2022-12-16T00:11:19.288Z,79.99
2022-12-16T00:12:19.231Z,80.08
2022-12-16T00:13:19.171Z,79.99
2022-12-16T00:14:19.112Z,79.99
2022-12-16T00:15:19.037Z,80.08
2022-12-16T00:16:19.020Z,79.80
2022-12-16T00:17:18.929Z,79.90
2022-12-16T00:18:18.852Z,79.80
2022-12-16T00:19:18.799Z,80.08
2022-12-16T00:20:18.733Z,79.90
2022-12-16T00:21:18.675Z,79.99
2022-12-16T00:22:18.605Z,79.80
2022-12-16T00:23:18.542Z,79.90
2022-12-16T00:24:18.484Z,79.90
2022-12-16T00:25:25.110Z,79.90
2022-12-16T00:27:49.950Z,79.90
2022-12-16T00:28:49.876Z,79.99
2022-12-16T00:30:42.740Z,79.90
2022-12-16T00:31:42.657Z,79.90
2022-12-16T00:33:35.967Z,80.27
2022-12-16T00:34:35.428Z,79.80
2022-12-16T00:36:28.278Z,79.99
2022-12-16T00:37:28.211Z,79.90
2022-12-16T00:39:21.057Z,80.37
2022-12-16T00:40:20.983Z,79.90
2022-12-16T00:42:13.834Z,80.27
2022-12-16T00:43:13.837Z,79.90
2022-12-16T00:45:06.600Z,79.99
2022-12-16T00:46:06.700Z,80.27
2022-12-16T00:47:59.878Z,79.71
2022-12-16T00:48:59.809Z,80.27
2022-12-16T00:49:59.744Z,79.80
2022-12-16T00:50:59.682Z,80.46
2022-12-16T00:51:59.618Z,80.46
2022-12-16T00:52:59.560Z,79.80
2022-12-16T00:53:59.501Z,80.46
2022-12-16T00:54:59.434Z,80.27
2022-12-16T00:55:59.381Z,80.46
2022-12-16T00:56:59.307Z,80.37
2022-12-16T00:57:59.249Z,80.37
2022-12-16T00:58:59.186Z,80.37
2022-12-16T00:59:59.124Z,80.27
2022-12-16T01:00:59.177Z,80.46
2022-12-16T01:01:59.275Z,80.46
2022-12-16T01:02:59.118Z,80.46
2022-12-16T01:03:58.923Z,80.46
2022-12-16T01:04:58.821Z,80.27
2022-12-16T01:05:58.753Z,80.56
2022-12-16T01:06:58.694Z,79.99
2022-12-16T01:07:58.628Z,80.27
2022-12-16T01:08:58.566Z,79.80
2022-12-16T01:09:58.504Z,80.27
2022-12-16T01:10:58.437Z,80.56
2022-12-16T01:11:58.384Z,80.27
2022-12-16T01:12:58.320Z,80.65
2022-12-16T01:13:58.254Z,80.46
2022-12-16T01:14:58.193Z,80.56
2022-12-16T01:15:58.161Z,79.90
2022-12-16T01:16:58.093Z,80.27
2022-12-16T01:17:58.022Z,80.56
2022-12-16T01:18:57.942Z,80.65
2022-12-16T01:19:57.887Z,80.27
2022-12-16T01:20:57.826Z,80.46
2022-12-16T01:21:57.760Z,80.46
2022-12-16T01:22:57.704Z,80.56
2022-12-16T01:23:57.640Z,80.27
2022-12-16T01:24:57.572Z,80.27
2022-12-16T01:25:57.512Z,79.99
2022-12-16T01:26:57.450Z,80.37
2022-12-16T01:27:57.387Z,80.27
2022-12-16T01:28:57.323Z,80.46
2022-12-16T01:29:57.268Z,80.27
2022-12-16T01:30:57.201Z,80.08
2022-12-16T01:31:57.280Z,80.08
2022-12-16T01:32:57.081Z,80.08
2022-12-16T01:33:57.025Z,80.27
2022-12-16T01:34:56.956Z,80.46
2022-12-16T01:35:56.895Z,80.27
2022-12-16T01:36:56.826Z,80.08
2022-12-16T01:37:56.768Z,80.27
2022-12-16T01:38:56.705Z,80.27
2022-12-16T01:39:56.644Z,80.27
2022-12-16T01:40:56.584Z,80.08
2022-12-16T01:41:56.519Z,80.18
2022-12-16T01:42:56.459Z,80.27
2022-12-16T01:43:56.393Z,80.27
2022-12-16T01:44:56.332Z,80.18
2022-12-16T01:45:56.326Z,80.18
2022-12-16T01:46:56.208Z,80.08
2022-12-16T01:47:56.149Z,80.37
2022-12-16T01:48:56.083Z,80.37
2022-12-16T01:49:56.026Z,80.08
2022-12-16T01:50:55.961Z,80.37
2022-12-16T01:51:55.896Z,80.08
2022-12-16T01:52:55.835Z,80.08
2022-12-16T01:53:55.777Z,80.08
2022-12-16T01:54:55.715Z,80.08
2022-12-16T01:55:55.646Z,79.99
2022-12-16T01:56:55.593Z,80.08
2022-12-16T01:57:55.527Z,79.90
2022-12-16T01:58:55.462Z,79.90
2022-12-16T01:59:55.405Z,80.18
2022-12-16T02:00:55.420Z,80.08
2022-12-16T02:01:55.500Z,80.08
2022-12-16T02:02:55.285Z,80.46
2022-12-16T02:03:55.158Z,80.46
2022-12-16T02:04:55.095Z,80.46
2022-12-16T02:05:55.036Z,80.56
2022-12-16T02:06:54.973Z,80.37
2022-12-16T02:07:54.903Z,80.27
2022-12-16T02:08:54.856Z,80.18
2022-12-16T02:09:54.779Z,79.99
2022-12-16T02:10:55.105Z,80.08
2022-12-16T02:11:54.662Z,80.37
2022-12-16T02:12:54.596Z,80.37
2022-12-16T02:13:54.529Z,80.56
2022-12-16T02:14:54.488Z,80.46
2022-12-16T02:15:54.411Z,80.18
2022-12-16T02:16:55.028Z,80.46
2022-12-16T02:17:54.286Z,80.18
2022-12-16T02:18:54.226Z,80.18
2022-12-16T02:19:54.159Z,80.18
2022-12-16T02:20:54.110Z,80.18
2022-12-16T02:21:54.045Z,79.99
2022-12-16T02:22:53.980Z,80.27
2022-12-16T02:23:53.916Z,80.18
2022-12-16T02:24:53.852Z,80.08
2022-12-16T02:25:53.789Z,80.18
2022-12-16T02:26:53.728Z,80.18
2022-12-16T02:27:55.068Z,80.27
2022-12-16T02:28:55.235Z,80.18
2022-12-16T02:29:53.542Z,80.27
2022-12-16T02:30:53.525Z,80.27
2022-12-16T02:31:53.977Z,80.08
2022-12-16T02:32:53.360Z,80.18
2022-12-16T02:33:53.289Z,80.27
2022-12-16T02:34:53.229Z,80.27
2022-12-16T02:35:53.168Z,80.18
2022-12-16T02:36:53.105Z,80.27
2022-12-16T02:37:53.054Z,80.18
2022-12-16T02:38:56.121Z,80.65
2022-12-16T02:39:52.922Z,80.27
2022-12-16T02:40:52.862Z,80.18
2022-12-16T02:41:52.792Z,80.18
2022-12-16T02:42:52.737Z,80.27
2022-12-16T02:43:52.675Z,80.27
2022-12-16T02:44:52.615Z,80.27
2022-12-16T02:45:52.581Z,80.27
2022-12-16T02:46:52.490Z,80.65
2022-12-16T02:47:52.427Z,80.18
2022-12-16T02:48:52.362Z,80.18
2022-12-16T02:49:52.304Z,80.18
2022-12-16T02:50:52.245Z,80.65
2022-12-16T02:51:52.173Z,79.99
2022-12-16T02:52:52.115Z,80.27
2022-12-16T02:53:52.129Z,80.27
2022-12-16T02:54:51.990Z,80.46
2022-12-16T02:55:51.928Z,80.65
2022-12-16T02:56:51.870Z,80.27
2022-12-16T02:57:51.800Z,80.65
2022-12-16T02:58:51.740Z,80.46
2022-12-16T02:59:51.680Z,80.27
2022-12-16T03:00:51.673Z,80.37
2022-12-16T03:01:51.792Z,80.37
2022-12-16T03:02:51.584Z,80.37
2022-12-16T03:03:51.431Z,80.46
2022-12-16T03:04:51.372Z,80.46
2022-12-16T03:05:51.310Z,80.37
2022-12-16T03:06:51.261Z,80.46
2022-12-16T03:07:51.183Z,80.37
2022-12-16T03:08:51.120Z,80.56
2022-12-16T03:09:51.070Z,80.65
2022-12-16T03:10:50.996Z,80.65
2022-12-16T03:11:50.939Z,80.65
2022-12-16T03:12:50.876Z,80.46
2022-12-16T03:13:50.807Z,80.56
2022-12-16T03:14:50.756Z,80.65
2022-12-16T03:15:50.684Z,80.56
2022-12-16T03:16:50.726Z,80.46
2022-12-16T03:17:50.561Z,80.65
2022-12-16T03:18:50.518Z,80.56
2022-12-16T03:19:50.440Z,80.56
2022-12-16T03:20:50.378Z,80.56
2022-12-16T03:21:50.312Z,80.56
2022-12-16T03:22:50.251Z,80.56
2022-12-16T03:23:50.190Z,80.65
2022-12-16T03:24:50.129Z,80.46
2022-12-16T03:25:50.075Z,80.18
2022-12-16T03:26:50.009Z,80.65
2022-12-16T03:27:49.943Z,80.27
2022-12-16T03:28:49.885Z,80.27
2022-12-16T03:29:49.816Z,80.56
2022-12-16T03:30:49.807Z,80.46
2022-12-16T03:31:49.704Z,80.46
2022-12-16T03:32:49.634Z,80.37
2022-12-16T03:33:49.573Z,80.27
2022-12-16T03:34:49.508Z,80.46
2022-12-16T03:35:49.567Z,80.27
2022-12-16T03:36:49.383Z,80.46
2022-12-16T03:37:49.323Z,80.46
2022-12-16T03:38:49.257Z,80.46
2022-12-16T03:39:49.195Z,80.46
2022-12-16T03:40:49.143Z,80.46
2022-12-16T03:41:49.077Z,80.37
2022-12-16T03:42:49.013Z,80.46
2022-12-16T03:43:48.950Z,80.37
2022-12-16T03:44:48.886Z,80.37
2022-12-16T03:45:48.853Z,80.46
2022-12-16T03:46:48.768Z,80.37
2022-12-16T03:47:48.701Z,80.37
2022-12-16T03:48:48.643Z,80.37
2022-12-16T03:49:48.583Z,80.37
2022-12-16T03:50:48.623Z,80.56
2022-12-16T03:51:48.453Z,80.56
2022-12-16T03:52:48.395Z,80.37
2022-12-16T03:53:48.327Z,80.56
2022-12-16T03:54:48.268Z,80.56
2022-12-16T03:55:48.211Z,80.37
2022-12-16T03:56:48.150Z,80.56
2022-12-16T03:57:48.082Z,80.37
2022-12-16T03:58:48.025Z,80.56
2022-12-16T03:59:47.959Z,80.08
2022-12-16T04:00:47.896Z,80.56
2022-12-16T04:01:47.905Z,80.56
2022-12-16T04:02:47.956Z,80.56
2022-12-16T04:03:47.763Z,80.37
2022-12-16T04:04:47.645Z,80.46
2022-12-16T04:05:47.591Z,80.37
2022-12-16T04:06:47.520Z,80.56
2022-12-16T04:07:47.466Z,80.56
2022-12-16T04:08:47.402Z,80.56
2022-12-16T04:09:47.335Z,80.56
2022-12-16T04:10:47.278Z,80.56
2022-12-16T04:11:47.213Z,80.56
2022-12-16T04:12:47.154Z,80.37
2022-12-16T04:13:47.096Z,80.27
2022-12-16T04:14:51.847Z,80.56
2022-12-16T04:15:47.021Z,80.37
2022-12-16T04:16:46.906Z,80.18
2022-12-16T04:17:46.843Z,80.56
2022-12-16T04:18:46.781Z,80.56
2022-12-16T04:19:46.718Z,80.37
2022-12-16T04:20:46.656Z,80.56
2022-12-16T04:21:46.589Z,80.46
2022-12-16T04:22:46.591Z,80.46
2022-12-16T04:23:46.464Z,80.37
2022-12-16T04:24:46.417Z,80.18
2022-12-16T04:25:46.340Z,80.46
2022-12-16T04:26:46.279Z,80.27
2022-12-16T04:27:46.217Z,80.46
2022-12-16T04:28:46.158Z,80.27
2022-12-16T04:29:46.108Z,80.18
2022-12-16T04:30:46.097Z,80.18
2022-12-16T04:31:45.972Z,80.56
2022-12-16T04:32:45.912Z,80.08
2022-12-16T04:33:45.852Z,80.27
2022-12-16T04:34:45.783Z,80.18
2022-12-16T04:35:45.726Z,80.18
2022-12-16T04:36:45.665Z,80.18
2022-12-16T04:37:45.597Z,80.27
2022-12-16T04:38:45.534Z,80.18
2022-12-16T04:39:45.476Z,80.46
2022-12-16T04:40:45.414Z,80.37
2022-12-16T04:41:45.355Z,80.37
2022-12-16T04:42:45.293Z,80.37
2022-12-16T04:43:45.228Z,80.56
2022-12-16T04:44:45.166Z,80.56
2022-12-16T04:45:45.113Z,80.37
2022-12-16T04:46:45.101Z,80.56
2022-12-16T04:47:44.981Z,80.56
2022-12-16T04:48:44.919Z,80.37
2022-12-16T04:49:44.861Z,80.37
2022-12-16T04:50:44.792Z,80.08
2022-12-16T04:51:44.732Z,80.37
2022-12-16T04:52:44.675Z,80.56
2022-12-16T04:53:44.602Z,80.56
2022-12-16T04:54:44.547Z,80.37
2022-12-16T04:55:45.457Z,80.37
2022-12-16T04:56:44.420Z,80.18
2022-12-16T04:57:44.358Z,80.37
2022-12-16T04:58:44.301Z,80.37
2022-12-16T04:59:44.231Z,80.27
2022-12-16T05:00:44.173Z,80.37
2022-12-16T05:01:44.370Z,80.56
2022-12-16T05:02:44.147Z,80.56
2022-12-16T05:03:44.067Z,80.56
2022-12-16T05:04:43.932Z,80.37
2022-12-16T05:05:43.858Z,80.56
2022-12-16T05:06:43.803Z,80.56
2022-12-16T05:07:43.737Z,80.37
2022-12-16T05:08:43.680Z,80.37
2022-12-16T05:09:43.611Z,80.56
2022-12-16T05:10:43.555Z,80.37
2022-12-16T05:11:43.490Z,80.56
2022-12-16T05:12:43.428Z,80.37
2022-12-16T05:13:43.371Z,80.56
2022-12-16T05:14:43.305Z,80.56
2022-12-16T05:15:43.276Z,80.56
2022-12-16T05:16:43.177Z,80.56
2022-12-16T05:17:43.128Z,80.56
2022-12-16T05:18:43.058Z,80.37
2022-12-16T05:19:42.990Z,80.46
2022-12-16T05:20:42.936Z,80.56
2022-12-16T05:21:42.868Z,80.37
2022-12-16T05:22:42.810Z,80.56
2022-12-16T05:23:42.752Z,80.56
2022-12-16T05:24:42.682Z,80.56
2022-12-16T05:25:42.627Z,80.56
2022-12-16T05:26:42.633Z,80.37
2022-12-16T05:27:42.495Z,80.37
2022-12-16T05:28:42.434Z,80.37
2022-12-16T05:29:42.376Z,80.37
2022-12-16T05:30:42.311Z,80.56
2022-12-16T05:31:42.341Z,80.27
2022-12-16T05:32:42.188Z,80.37
2022-12-16T05:33:42.138Z,80.37
2022-12-16T05:34:42.068Z,80.56
2022-12-16T05:35:42.007Z,80.56
2022-12-16T05:36:41.938Z,80.37
2022-12-16T05:37:41.873Z,80.46
2022-12-16T05:38:41.825Z,80.37
2022-12-16T05:39:41.752Z,80.56
2022-12-16T05:40:41.694Z,80.37
2022-12-16T05:41:41.624Z,80.27
2022-12-16T05:42:41.618Z,80.27
2022-12-16T05:43:41.501Z,80.37
2022-12-16T05:44:41.445Z,80.56
2022-12-16T05:45:41.436Z,80.56
2022-12-16T05:46:41.405Z,80.37
2022-12-16T05:47:41.258Z,80.37
2022-12-16T05:48:47.462Z,80.27
2022-12-16T05:49:41.272Z,80.46
2022-12-16T05:50:41.072Z,80.56
2022-12-16T05:51:41.003Z,80.37
2022-12-16T05:52:40.948Z,80.46
2022-12-16T05:53:40.883Z,80.46
2022-12-16T05:54:40.823Z,80.37
2022-12-16T05:55:40.757Z,80.46
2022-12-16T05:56:40.696Z,80.46
2022-12-16T05:57:40.639Z,80.46
2022-12-16T05:58:40.574Z,80.46
2022-12-16T05:59:40.515Z,80.46
2022-12-16T06:00:40.451Z,80.65
2022-12-16T06:01:40.559Z,80.46
2022-12-16T06:02:40.589Z,80.46
2022-12-16T06:03:40.387Z,80.46
2022-12-16T06:04:40.205Z,80.46
2022-12-16T06:05:40.146Z,80.75
2022-12-16T06:06:40.075Z,80.56
2022-12-16T06:07:40.018Z,80.56
2022-12-16T06:08:39.956Z,80.46
2022-12-16T06:09:39.887Z,80.56
2022-12-16T06:10:39.827Z,80.56
2022-12-16T06:11:39.770Z,80.56
2022-12-16T06:12:39.707Z,80.37
2022-12-16T06:13:39.646Z,80.46
2022-12-16T06:14:40.484Z,80.46
2022-12-16T06:15:39.517Z,80.46
2022-12-16T06:16:39.516Z,80.46
2022-12-16T06:17:39.400Z,80.46
2022-12-16T06:18:39.334Z,80.46
2022-12-16T06:19:39.270Z,80.46
2022-12-16T06:20:39.204Z,80.56
2022-12-16T06:21:39.227Z,80.65
2022-12-16T06:22:39.084Z,80.65
2022-12-16T06:23:39.031Z,80.37
2022-12-16T06:24:38.961Z,80.46
2022-12-16T06:25:38.895Z,80.37
2022-12-16T06:26:38.839Z,80.37
2022-12-16T06:27:38.772Z,80.37
2022-12-16T06:28:42.032Z,80.46
2022-12-16T06:29:38.652Z,80.65
2022-12-16T06:30:38.591Z,80.65
2022-12-16T06:31:38.563Z,79.99
2022-12-16T06:32:38.464Z,80.27
2022-12-16T06:33:38.401Z,80.18
2022-12-16T06:34:38.336Z,80.18
2022-12-16T06:35:38.279Z,80.46
2022-12-16T06:36:38.229Z,80.27
2022-12-16T06:37:38.173Z,80.18
2022-12-16T06:38:38.095Z,80.27
2022-12-16T06:39:38.029Z,80.18
2022-12-16T06:40:37.968Z,80.08
2022-12-16T06:41:37.903Z,80.27
2022-12-16T06:42:37.842Z,80.27
2022-12-16T06:43:37.783Z,80.08
2022-12-16T06:44:37.760Z,80.27
2022-12-16T06:45:37.692Z,79.99
2022-12-16T06:46:38.490Z,80.08
2022-12-16T06:47:37.534Z,80.08
2022-12-16T06:48:43.985Z,80.27
2022-12-16T06:49:37.410Z,80.27
2022-12-16T06:50:40.467Z,80.18
2022-12-16T06:51:37.283Z,80.08
2022-12-16T06:52:37.224Z,80.08
2022-12-16T06:53:37.172Z,80.18
2022-12-16T06:54:37.098Z,80.18
2022-12-16T06:55:37.035Z,80.08
2022-12-16T06:56:36.974Z,80.18
2022-12-16T06:57:36.917Z,80.18
2022-12-16T06:58:36.851Z,80.18
2022-12-16T06:59:36.789Z,80.18
2022-12-16T07:00:36.768Z,80.37
2022-12-16T07:01:36.816Z,80.18
2022-12-16T07:02:36.724Z,80.18
2022-12-16T07:03:36.554Z,80.18
2022-12-16T07:04:36.479Z,80.18
2022-12-16T07:05:36.412Z,80.18
2022-12-16T07:06:36.349Z,80.18
2022-12-16T07:07:36.394Z,80.37
2022-12-16T07:08:36.228Z,80.46
2022-12-16T07:09:36.175Z,80.18
2022-12-16T07:10:36.104Z,80.08
2022-12-16T07:11:36.043Z,80.18
2022-12-16T07:12:35.979Z,80.46
2022-12-16T07:13:35.923Z,80.46
2022-12-16T07:14:35.855Z,80.37
2022-12-16T07:15:35.792Z,80.18
2022-12-16T07:16:35.775Z,80.46
2022-12-16T07:17:35.671Z,80.46
2022-12-16T07:18:35.605Z,79.90
2022-12-16T07:19:35.556Z,80.27
2022-12-16T07:20:35.495Z,80.46
2022-12-16T07:21:35.426Z,80.46
2022-12-16T07:22:35.358Z,80.27
2022-12-16T07:23:35.576Z,80.18
2022-12-16T07:24:35.235Z,80.18
2022-12-16T07:25:35.175Z,80.08
2022-12-16T07:26:35.113Z,80.08
2022-12-16T07:27:35.048Z,80.08
2022-12-16T07:28:34.984Z,80.08
2022-12-16T07:29:34.925Z,80.08
2022-12-16T07:30:34.860Z,80.08
2022-12-16T07:31:34.906Z,80.37
2022-12-16T07:32:34.742Z,80.08
2022-12-16T07:33:35.351Z,80.08
2022-12-16T07:34:40.693Z,80.27
2022-12-16T07:35:34.556Z,80.18
2022-12-16T07:36:34.504Z,80.18
2022-12-16T07:37:34.433Z,80.08
2022-12-16T07:38:34.367Z,80.18
2022-12-16T07:39:34.303Z,80.27
2022-12-16T07:40:34.248Z,80.18
2022-12-16T07:41:34.192Z,80.18
2022-12-16T07:42:34.118Z,80.18
2022-12-16T07:43:34.580Z,80.37
2022-12-16T07:44:33.992Z,80.18
2022-12-16T07:45:33.992Z,80.18
2022-12-16T07:46:33.941Z,80.08
2022-12-16T07:47:33.807Z,80.08
2022-12-16T07:48:33.753Z,80.27
2022-12-16T07:49:33.686Z,80.27
2022-12-16T07:50:33.619Z,80.08
2022-12-16T07:51:33.560Z,80.18
2022-12-16T07:52:33.508Z,80.27
2022-12-16T07:53:33.785Z,80.37
2022-12-16T07:54:33.371Z,80.18
2022-12-16T07:55:33.310Z,80.27
2022-12-16T07:56:33.246Z,80.37
2022-12-16T07:57:33.200Z,80.46
2022-12-16T07:58:33.121Z,80.08
2022-12-16T07:59:33.065Z,80.37
2022-12-16T08:00:33.008Z,80.08
2022-12-16T08:01:33.111Z,80.27
2022-12-16T08:02:33.130Z,80.46
2022-12-16T08:03:33.297Z,80.27
2022-12-16T08:04:32.761Z,80.08
2022-12-16T08:05:32.691Z,80.65
2022-12-16T08:06:38.625Z,80.65
2022-12-16T08:07:32.573Z,80.46
2022-12-16T08:08:32.508Z,80.08
2022-12-16T08:09:32.445Z,80.37
2022-12-16T08:10:32.383Z,80.08
2022-12-16T08:11:32.316Z,80.46
2022-12-16T08:12:32.255Z,80.27
2022-12-16T08:13:32.397Z,80.37
2022-12-16T08:14:32.181Z,80.27
2022-12-16T08:15:32.075Z,80.27
2022-12-16T08:16:32.040Z,80.27
2022-12-16T08:17:31.952Z,80.27
2022-12-16T08:18:31.885Z,80.46
2022-12-16T08:19:31.825Z,80.08
2022-12-16T08:20:31.766Z,80.46
2022-12-16T08:21:33.514Z,80.27
2022-12-16T08:22:31.639Z,80.37
2022-12-16T08:23:31.950Z,80.37
2022-12-16T08:24:31.518Z,80.27
2022-12-16T08:25:31.450Z,80.46
2022-12-16T08:26:31.390Z,80.27
2022-12-16T08:27:31.330Z,80.65
2022-12-16T08:28:31.261Z,79.90
2022-12-16T08:29:46.635Z,80.37
2022-12-16T08:30:31.182Z,80.37
2022-12-16T08:31:31.075Z,79.90
2022-12-16T08:32:31.020Z,79.90
2022-12-16T08:33:31.012Z,79.90
2022-12-16T08:34:30.890Z,80.27
2022-12-16T08:35:30.832Z,79.90
2022-12-16T08:36:30.765Z,79.80
2022-12-16T08:37:30.706Z,79.90
2022-12-16T08:38:30.638Z,80.08
2022-12-16T08:39:30.579Z,79.99
2022-12-16T08:40:37.429Z,79.90
2022-12-16T08:41:30.459Z,80.18
2022-12-16T08:42:30.391Z,79.80
2022-12-16T08:43:30.641Z,80.08
2022-12-16T08:44:30.272Z,79.99
2022-12-16T08:45:30.210Z,79.99
2022-12-16T08:46:30.293Z,79.99
2022-12-16T08:47:30.085Z,79.90
2022-12-16T08:48:30.018Z,79.90
2022-12-16T08:49:29.957Z,79.80
2022-12-16T08:50:29.899Z,79.90
2022-12-16T08:51:29.833Z,79.80
2022-12-16T08:52:29.771Z,79.90
2022-12-16T08:53:30.075Z,79.90
2022-12-16T08:54:29.649Z,79.80
2022-12-16T08:55:30.096Z,79.99
2022-12-16T08:56:29.527Z,79.80
2022-12-16T08:57:29.468Z,79.80
2022-12-16T08:58:29.399Z,79.90
2022-12-16T08:59:29.344Z,79.61
2022-12-16T09:00:29.274Z,79.90
2022-12-16T09:01:29.346Z,79.80
2022-12-16T09:02:29.622Z,79.90
2022-12-16T09:03:29.191Z,79.90
2022-12-16T09:04:29.032Z,79.80
2022-12-16T09:05:28.971Z,79.99
2022-12-16T09:06:28.904Z,79.80
2022-12-16T09:07:28.840Z,79.90
2022-12-16T09:08:28.778Z,79.90
2022-12-16T09:09:28.722Z,79.90
2022-12-16T09:10:28.652Z,79.80
2022-12-16T09:11:28.600Z,79.61
2022-12-16T09:12:28.535Z,79.90
2022-12-16T09:13:28.467Z,79.80
2022-12-16T09:14:28.411Z,79.71
2022-12-16T09:15:28.406Z,80.08
2022-12-16T09:16:28.370Z,79.90
2022-12-16T09:17:28.234Z,79.90
2022-12-16T09:18:28.161Z,79.61
2022-12-16T09:19:28.099Z,79.90
2022-12-16T09:20:28.032Z,79.90
2022-12-16T09:21:31.885Z,79.99
2022-12-16T09:22:27.911Z,79.80
2022-12-16T09:23:27.848Z,79.99
2022-12-16T09:24:27.784Z,79.61
2022-12-16T09:25:27.728Z,79.90
2022-12-16T09:26:27.702Z,79.80
2022-12-16T09:27:27.604Z,79.61
2022-12-16T09:28:27.539Z,79.61
2022-12-16T09:29:27.474Z,79.90
2022-12-16T09:30:27.417Z,79.90
2022-12-16T09:31:27.571Z,79.90
2022-12-16T09:32:27.289Z,79.90
2022-12-16T09:33:27.332Z,79.90
2022-12-16T09:34:27.165Z,79.80
2022-12-16T09:35:27.104Z,79.71
2022-12-16T09:36:27.045Z,79.80
2022-12-16T09:37:26.983Z,79.80
2022-12-16T09:38:26.921Z,79.80
2022-12-16T09:39:26.861Z,79.90
2022-12-16T09:40:26.794Z,80.08
2022-12-16T09:41:26.733Z,79.80
2022-12-16T09:42:26.668Z,79.90
2022-12-16T09:43:26.606Z,79.71
2022-12-16T09:44:26.548Z,79.90
2022-12-16T09:45:26.486Z,79.71
2022-12-16T09:46:26.466Z,79.80
2022-12-16T09:47:26.366Z,79.80
2022-12-16T09:48:26.294Z,79.90
2022-12-16T09:49:26.241Z,79.61
2022-12-16T09:50:26.172Z,79.99
2022-12-16T09:51:26.109Z,79.90
2022-12-16T09:52:26.048Z,79.99
2022-12-16T09:53:25.987Z,79.61
2022-12-16T09:54:25.922Z,79.99
2022-12-16T09:55:25.868Z,79.90
2022-12-16T09:56:25.797Z,79.80
2022-12-16T09:57:25.745Z,79.80
2022-12-16T09:58:25.671Z,79.90
2022-12-16T09:59:25.617Z,79.90
2022-12-16T10:00:25.553Z,79.80
2022-12-16T10:01:25.665Z,79.80
2022-12-16T10:02:25.664Z,79.80
2022-12-16T10:03:25.544Z,79.80
2022-12-16T10:04:25.389Z,79.80
2022-12-16T10:05:25.381Z,80.08
2022-12-16T10:06:25.175Z,79.80
2022-12-16T10:07:25.123Z,79.80
2022-12-16T10:08:25.055Z,79.80
2022-12-16T10:09:24.995Z,80.08
2022-12-16T10:10:24.939Z,79.80
2022-12-16T10:11:24.874Z,79.99
2022-12-16T10:12:24.811Z,79.99
2022-12-16T10:13:24.743Z,80.08
2022-12-16T10:14:24.684Z,79.80
2022-12-16T10:15:24.623Z,79.90
2022-12-16T10:16:24.629Z,80.08
2022-12-16T10:17:24.498Z,80.08
2022-12-16T10:18:24.503Z,80.08
2022-12-16T10:19:24.372Z,79.99
2022-12-16T10:20:24.310Z,80.08
2022-12-16T10:21:24.262Z,79.90
2022-12-16T10:22:24.183Z,79.80
2022-12-16T10:23:24.123Z,80.08
2022-12-16T10:24:24.063Z,80.08
2022-12-16T10:25:25.403Z,79.90
2022-12-16T10:26:23.943Z,79.42
2022-12-16T10:27:23.877Z,79.99
2022-12-16T10:28:23.815Z,79.80
2022-12-16T10:29:23.747Z,79.80
2022-12-16T10:30:23.691Z,80.08
2022-12-16T10:31:28.233Z,79.90
2022-12-16T10:32:23.563Z,79.99
2022-12-16T10:33:23.501Z,79.90
2022-12-16T10:34:23.439Z,80.08
2022-12-16T10:35:23.380Z,80.08
2022-12-16T10:36:23.318Z,79.99
2022-12-16T10:37:23.259Z,79.33
2022-12-16T10:38:23.196Z,79.61
2022-12-16T10:39:23.127Z,79.23
2022-12-16T10:40:23.065Z,79.33
2022-12-16T10:41:23.010Z,79.90
2022-12-16T10:42:22.950Z,79.99
2022-12-16T10:43:22.912Z,79.23
2022-12-16T10:44:22.823Z,79.23
2022-12-16T10:45:22.763Z,79.23
2022-12-16T10:46:22.799Z,79.52
2022-12-16T10:47:22.637Z,79.23
2022-12-16T10:48:22.575Z,79.23
2022-12-16T10:49:22.586Z,79.33
2022-12-16T10:50:22.447Z,79.23
2022-12-16T10:51:22.385Z,79.33
2022-12-16T10:52:22.328Z,79.23
2022-12-16T10:53:22.288Z,79.23
2022-12-16T10:54:22.197Z,79.23
2022-12-16T10:55:22.143Z,79.61
2022-12-16T10:56:22.080Z,79.23
2022-12-16T10:57:22.011Z,79.14
2022-12-16T10:58:32.550Z,79.23
2022-12-16T10:59:21.890Z,79.42
2022-12-16T11:00:21.828Z,79.42
2022-12-16T11:01:21.920Z,79.61
2022-12-16T11:02:21.919Z,79.14
2022-12-16T11:03:21.922Z,79.23
2022-12-16T11:04:21.701Z,79.33
2022-12-16T11:05:21.518Z,79.23
2022-12-16T11:06:21.455Z,79.23
2022-12-16T11:07:21.389Z,79.52
2022-12-16T11:08:21.330Z,79.52
2022-12-16T11:09:23.059Z,79.42
2022-12-16T11:10:23.346Z,79.23
2022-12-16T11:11:21.143Z,79.23
2022-12-16T11:12:21.087Z,79.23
2022-12-16T11:13:21.015Z,79.42
2022-12-16T11:14:20.957Z,79.14
2022-12-16T11:15:29.134Z,79.14
2022-12-16T11:16:20.888Z,79.23
2022-12-16T11:17:20.807Z,79.23
2022-12-16T11:18:20.710Z,79.42
2022-12-16T11:19:20.646Z,79.14
2022-12-16T11:20:20.591Z,79.23
2022-12-16T11:21:20.525Z,79.23
2022-12-16T11:22:20.468Z,79.23
2022-12-16T11:23:20.398Z,79.52
2022-12-16T11:24:20.340Z,79.42
2022-12-16T11:25:20.280Z,79.42
2022-12-16T11:26:20.214Z,79.52
2022-12-16T11:27:20.148Z,79.52
2022-12-16T11:28:20.099Z,79.33
2022-12-16T11:29:20.025Z,79.71
2022-12-16T11:30:19.969Z,79.71
2022-12-16T11:31:19.997Z,79.33
2022-12-16T11:32:19.848Z,79.42
2022-12-16T11:33:19.778Z,79.42
2022-12-16T11:34:19.713Z,79.42
2022-12-16T11:35:19.653Z,79.33
2022-12-16T11:36:19.589Z,79.52
2022-12-16T11:37:21.263Z,79.23
2022-12-16T11:38:19.473Z,79.42
2022-12-16T11:39:19.400Z,79.23
2022-12-16T11:40:19.352Z,79.42
2022-12-16T11:41:19.282Z,79.33
2022-12-16T11:42:19.226Z,79.42
2022-12-16T11:43:19.160Z,79.33
2022-12-16T11:44:19.095Z,79.23
2022-12-16T11:45:19.028Z,79.23
2022-12-16T11:46:19.047Z,79.52
2022-12-16T11:47:18.912Z,79.33
2022-12-16T11:48:18.851Z,79.42
2022-12-16T11:49:24.809Z,79.42
2022-12-16T11:50:18.724Z,79.61
2022-12-16T11:51:18.659Z,79.61
2022-12-16T11:52:36.377Z,79.61
2022-12-16T11:53:18.535Z,79.42
2022-12-16T11:54:18.475Z,79.61
2022-12-16T11:55:18.673Z,79.42
2022-12-16T11:56:18.441Z,79.61
2022-12-16T11:57:18.300Z,79.52
2022-12-16T11:58:18.230Z,79.42
2022-12-16T11:59:18.163Z,79.61
2022-12-16T12:00:18.098Z,79.42
2022-12-16T12:01:18.208Z,79.52
2022-12-16T12:02:18.143Z,79.42
2022-12-16T12:03:18.043Z,79.52
2022-12-16T12:04:17.921Z,79.04
2022-12-16T12:05:17.796Z,79.52
2022-12-16T12:06:17.731Z,79.52
2022-12-16T12:07:17.673Z,79.42
2022-12-16T12:08:17.610Z,79.52
2022-12-16T12:09:17.538Z,79.04
2022-12-16T12:10:17.480Z,79.33
2022-12-16T12:11:17.421Z,79.33
2022-12-16T12:12:17.363Z,79.23
2022-12-16T12:13:17.302Z,79.04
2022-12-16T12:14:17.230Z,79.23
2022-12-16T12:15:17.168Z,79.04
2022-12-16T12:16:17.160Z,79.42
2022-12-16T12:17:17.053Z,79.23
2022-12-16T12:18:16.982Z,78.95
2022-12-16T12:19:16.919Z,78.95
2022-12-16T12:20:16.979Z,79.23
2022-12-16T12:21:16.793Z,79.23
2022-12-16T12:22:16.740Z,79.23
2022-12-16T12:23:16.669Z,79.04
2022-12-16T12:24:16.615Z,79.14
2022-12-16T12:25:16.548Z,78.95
2022-12-16T12:26:16.491Z,78.66
2022-12-16T12:27:18.096Z,78.66
2022-12-16T12:28:16.362Z,78.85
2022-12-16T12:29:16.306Z,78.85
2022-12-16T12:30:16.744Z,78.75
2022-12-16T12:31:16.207Z,78.95
2022-12-16T12:32:16.118Z,78.85
2022-12-16T12:33:16.053Z,78.66
2022-12-16T12:34:15.991Z,78.85
2022-12-16T12:35:15.926Z,78.66
2022-12-16T12:36:15.864Z,78.66
2022-12-16T12:37:15.807Z,78.75
2022-12-16T12:38:15.744Z,78.66
2022-12-16T12:39:17.583Z,78.75
2022-12-16T12:40:15.618Z,78.66
2022-12-16T12:41:15.558Z,78.66
2022-12-16T12:42:15.496Z,78.66
2022-12-16T12:43:15.451Z,78.66
2022-12-16T12:44:15.374Z,78.85
2022-12-16T12:45:15.312Z,78.66
2022-12-16T12:46:15.303Z,78.56
2022-12-16T12:47:15.266Z,78.75
2022-12-16T12:48:15.119Z,78.66
2022-12-16T12:49:15.060Z,78.66
2022-12-16T12:50:15.002Z,78.66
2022-12-16T12:51:14.933Z,78.75
2022-12-16T12:52:14.872Z,78.85
2022-12-16T12:53:14.814Z,78.66
2022-12-16T12:54:14.747Z,78.85
2022-12-16T12:55:14.704Z,78.75
2022-12-16T12:56:14.632Z,79.23
2022-12-16T12:57:14.559Z,78.66
2022-12-16T12:58:14.502Z,78.66
2022-12-16T12:59:14.441Z,78.75